sensor_id;sensor_type;location;lat;lon;timestamp;temperature;humidity
22526;DHT22;11429;50.842;4.386;2023-02-11T00:01:10;7.00;99.90
22526;DHT22;11429;50.842;4.386;2023-02-11T00:03:37;6.90;99.90
22526;DHT22;11429;50.842;4.386;2023-02-11T00:06:05;7.00;99.90
22526;DHT22;11429;50.842;4.386;2023-02-11T00:08:34;7.00;99.90
22526;DHT22;11429;50.842;4.386;2023-02-11T00:10:59;7.00;99.90
22526;DHT22;11429;50.842;4.386;2023-02-11T00:13:25;7.10;99.90
22526;DHT22;11429;50.842;4.386;2023-02-11T00:15:52;7.00;99.90
22526;DHT22;11429;50.842;4.386;2023-02-11T00:18:18;7.00;99.90
22526;DHT22;11429;50.842;4.386;2023-02-11T00:20:43;7.00;99.90
22526;DHT22;11429;50.842;4.386;2023-02-11T00:23:09;6.90;99.90
22526;DHT22;11429;50.842;4.386;2023-02-11T00:25:40;6.90;99.90
22526;DHT22;11429;50.842;4.386;2023-02-11T00:28:06;6.90;99.90
22526;DHT22;11429;50.842;4.386;2023-02-11T00:30:31;6.80;99.90
22526;DHT22;11429;50.842;4.386;2023-02-11T00:32:57;6.80;99.90
22526;DHT22;11429;50.842;4.386;2023-02-11T00:35:23;6.70;99.90
22526;DHT22;11429;50.842;4.386;2023-02-11T00:37:48;6.60;99.90
22526;DHT22;11429;50.842;4.386;2023-02-11T00:40:14;6.80;99.90
22526;DHT22;11429;50.842;4.386;2023-02-11T00:42:41;6.90;99.90
22526;DHT22;11429;50.842;4.386;2023-02-11T00:45:07;6.70;99.90
22526;DHT22;11429;50.842;4.386;2023-02-11T00:47:34;6.70;99.90
22526;DHT22;11429;50.842;4.386;2023-02-11T00:50:01;6.70;99.90
22526;DHT22;11429;50.842;4.386;2023-02-11T00:52:29;6.60;99.90
22526;DHT22;11429;50.842;4.386;2023-02-11T00:54:55;6.60;99.90
22526;DHT22;11429;50.842;4.386;2023-02-11T00:57:20;6.60;99.90
22526;DHT22;11429;50.842;4.386;2023-02-11T00:59:46;6.60;99.90
22526;DHT22;11429;50.842;4.386;2023-02-11T01:02:12;6.60;99.90
22526;DHT22;11429;50.842;4.386;2023-02-11T01:04:37;6.60;99.90
22526;DHT22;11429;50.842;4.386;2023-02-11T01:07:03;6.60;99.90
22526;DHT22;11429;50.842;4.386;2023-02-11T01:09:28;6.60;99.90
22526;DHT22;11429;50.842;4.386;2023-02-11T01:11:54;6.70;99.90
22526;DHT22;11429;50.842;4.386;2023-02-11T01:14:20;6.70;99.90
22526;DHT22;11429;50.842;4.386;2023-02-11T01:16:45;6.80;99.90
22526;DHT22;11429;50.842;4.386;2023-02-11T01:19:11;6.70;99.90
22526;DHT22;11429;50.842;4.386;2023-02-11T01:21:37;6.80;99.90
22526;DHT22;11429;50.842;4.386;2023-02-11T01:24:02;6.80;99.90
22526;DHT22;11429;50.842;4.386;2023-02-11T01:26:28;7.00;99.90
22526;DHT22;11429;50.842;4.386;2023-02-11T01:28:53;7.00;99.90
22526;DHT22;11429;50.842;4.386;2023-02-11T01:31:22;7.00;99.90
22526;DHT22;11429;50.842;4.386;2023-02-11T01:33:48;7.00;99.90
22526;DHT22;11429;50.842;4.386;2023-02-11T01:36:13;7.20;99.90
22526;DHT22;11429;50.842;4.386;2023-02-11T01:38:39;7.20;99.90
22526;DHT22;11429;50.842;4.386;2023-02-11T01:41:08;7.20;99.90
22526;DHT22;11429;50.842;4.386;2023-02-11T01:43:37;7.00;99.90
22526;DHT22;11429;50.842;4.386;2023-02-11T01:48:54;6.90;99.90
22526;DHT22;11429;50.842;4.386;2023-02-11T01:51:24;7.00;99.90
22526;DHT22;11429;50.842;4.386;2023-02-11T01:53:52;7.00;99.90
22526;DHT22;11429;50.842;4.386;2023-02-11T01:56:40;6.70;99.90
22526;DHT22;11429;50.842;4.386;2023-02-11T01:59:31;6.70;99.90
22526;DHT22;11429;50.842;4.386;2023-02-11T02:02:02;6.60;99.90
22526;DHT22;11429;50.842;4.386;2023-02-11T02:04:37;6.60;99.90
22526;DHT22;11429;50.842;4.386;2023-02-11T02:07:09;6.60;99.90
22526;DHT22;11429;50.842;4.386;2023-02-11T02:09:39;6.50;99.90
22526;DHT22;11429;50.842;4.386;2023-02-11T02:12:06;6.40;99.90
22526;DHT22;11429;50.842;4.386;2023-02-11T02:14:32;6.40;99.90
22526;DHT22;11429;50.842;4.386;2023-02-11T02:16:57;6.50;99.90
22526;DHT22;11429;50.842;4.386;2023-02-11T02:25:35;6.80;99.90
22526;DHT22;11429;50.842;4.386;2023-02-11T02:28:46;6.90;99.90
22526;DHT22;11429;50.842;4.386;2023-02-11T02:34:01;6.80;99.90
22526;DHT22;11429;50.842;4.386;2023-02-11T02:36:34;6.90;99.90
22526;DHT22;11429;50.842;4.386;2023-02-11T02:39:13;6.80;99.90
22526;DHT22;11429;50.842;4.386;2023-02-11T02:41:42;6.80;99.90
22526;DHT22;11429;50.842;4.386;2023-02-11T02:44:08;6.80;99.90
22526;DHT22;11429;50.842;4.386;2023-02-11T02:46:34;7.10;99.90
22526;DHT22;11429;50.842;4.386;2023-02-11T02:49:00;7.10;99.90
22526;DHT22;11429;50.842;4.386;2023-02-11T03:02:09;7.30;99.90
22526;DHT22;11429;50.842;4.386;2023-02-11T03:07:47;7.10;99.90
22526;DHT22;11429;50.842;4.386;2023-02-11T03:10:16;7.20;99.90
22526;DHT22;11429;50.842;4.386;2023-02-11T03:12:44;7.30;99.90
22526;DHT22;11429;50.842;4.386;2023-02-11T03:15:11;7.20;99.90
22526;DHT22;11429;50.842;4.386;2023-02-11T03:17:40;7.00;99.90
22526;DHT22;11429;50.842;4.386;2023-02-11T03:20:09;7.20;99.90
22526;DHT22;11429;50.842;4.386;2023-02-11T03:22:41;7.30;99.90
22526;DHT22;11429;50.842;4.386;2023-02-11T03:25:08;7.40;99.90
22526;DHT22;11429;50.842;4.386;2023-02-11T03:30:27;7.30;99.90
22526;DHT22;11429;50.842;4.386;2023-02-11T03:32:59;7.30;99.90
22526;DHT22;11429;50.842;4.386;2023-02-11T03:35:35;7.30;99.90
22526;DHT22;11429;50.842;4.386;2023-02-11T03:38:31;7.50;99.90
22526;DHT22;11429;50.842;4.386;2023-02-11T03:40:58;7.30;99.90
22526;DHT22;11429;50.842;4.386;2023-02-11T03:43:37;7.10;99.90
22526;DHT22;11429;50.842;4.386;2023-02-11T03:46:05;7.30;99.90
22526;DHT22;11429;50.842;4.386;2023-02-11T03:48:37;7.60;99.90
22526;DHT22;11429;50.842;4.386;2023-02-11T03:51:06;7.40;99.90
22526;DHT22;11429;50.842;4.386;2023-02-11T03:53:33;7.50;99.90
22526;DHT22;11429;50.842;4.386;2023-02-11T03:56:04;7.50;99.90
22526;DHT22;11429;50.842;4.386;2023-02-11T03:58:32;7.40;99.90
22526;DHT22;11429;50.842;4.386;2023-02-11T04:00:57;7.50;99.90
22526;DHT22;11429;50.842;4.386;2023-02-11T04:03:23;7.50;99.90
22526;DHT22;11429;50.842;4.386;2023-02-11T04:05:49;7.60;99.90
22526;DHT22;11429;50.842;4.386;2023-02-11T04:08:14;7.70;99.90
22526;DHT22;11429;50.842;4.386;2023-02-11T04:10:40;8.00;99.90
22526;DHT22;11429;50.842;4.386;2023-02-11T04:13:05;7.60;99.90
22526;DHT22;11429;50.842;4.386;2023-02-11T04:15:31;7.70;99.90
22526;DHT22;11429;50.842;4.386;2023-02-11T04:17:57;7.60;99.90
22526;DHT22;11429;50.842;4.386;2023-02-11T04:20:23;7.50;99.90
22526;DHT22;11429;50.842;4.386;2023-02-11T04:22:48;7.60;99.90
22526;DHT22;11429;50.842;4.386;2023-02-11T04:25:14;7.50;99.90
22526;DHT22;11429;50.842;4.386;2023-02-11T04:27:40;7.30;99.90
22526;DHT22;11429;50.842;4.386;2023-02-11T04:30:08;7.30;99.90
22526;DHT22;11429;50.842;4.386;2023-02-11T04:32:34;7.40;99.90
22526;DHT22;11429;50.842;4.386;2023-02-11T04:35:00;7.50;99.90
22526;DHT22;11429;50.842;4.386;2023-02-11T04:37:26;7.50;99.90
22526;DHT22;11429;50.842;4.386;2023-02-11T04:39:52;7.30;99.90
22526;DHT22;11429;50.842;4.386;2023-02-11T04:42:17;7.30;99.90
22526;DHT22;11429;50.842;4.386;2023-02-11T04:44:43;7.30;99.90
22526;DHT22;11429;50.842;4.386;2023-02-11T04:47:09;7.30;99.90
22526;DHT22;11429;50.842;4.386;2023-02-11T04:49:36;7.20;99.90
22526;DHT22;11429;50.842;4.386;2023-02-11T04:52:02;7.40;99.90
22526;DHT22;11429;50.842;4.386;2023-02-11T04:54:28;7.30;99.90
22526;DHT22;11429;50.842;4.386;2023-02-11T04:56:53;7.20;99.90
22526;DHT22;11429;50.842;4.386;2023-02-11T04:59:19;7.10;99.90
22526;DHT22;11429;50.842;4.386;2023-02-11T05:01:45;7.20;99.90
22526;DHT22;11429;50.842;4.386;2023-02-11T05:04:10;7.40;99.90
22526;DHT22;11429;50.842;4.386;2023-02-11T05:06:38;7.20;99.90
22526;DHT22;11429;50.842;4.386;2023-02-11T05:09:04;7.20;99.90
22526;DHT22;11429;50.842;4.386;2023-02-11T05:11:30;7.30;99.90
22526;DHT22;11429;50.842;4.386;2023-02-11T05:13:55;7.30;99.90
22526;DHT22;11429;50.842;4.386;2023-02-11T05:16:21;7.20;99.90
22526;DHT22;11429;50.842;4.386;2023-02-11T05:18:47;7.30;99.90
22526;DHT22;11429;50.842;4.386;2023-02-11T05:21:17;7.40;99.90
22526;DHT22;11429;50.842;4.386;2023-02-11T05:23:43;7.40;99.90
22526;DHT22;11429;50.842;4.386;2023-02-11T05:26:10;7.40;99.90
22526;DHT22;11429;50.842;4.386;2023-02-11T05:28:36;7.20;99.90
22526;DHT22;11429;50.842;4.386;2023-02-11T05:31:02;7.10;99.90
22526;DHT22;11429;50.842;4.386;2023-02-11T05:33:28;7.10;99.90
22526;DHT22;11429;50.842;4.386;2023-02-11T05:36:04;7.20;99.90
22526;DHT22;11429;50.842;4.386;2023-02-11T05:38:31;7.30;99.90
22526;DHT22;11429;50.842;4.386;2023-02-11T05:40:57;7.40;99.90
22526;DHT22;11429;50.842;4.386;2023-02-11T05:43:22;7.40;99.90
22526;DHT22;11429;50.842;4.386;2023-02-11T05:45:48;7.40;99.90
22526;DHT22;11429;50.842;4.386;2023-02-11T05:48:14;7.40;99.90
22526;DHT22;11429;50.842;4.386;2023-02-11T05:50:39;7.40;99.90
22526;DHT22;11429;50.842;4.386;2023-02-11T05:53:05;7.50;99.90
22526;DHT22;11429;50.842;4.386;2023-02-11T05:55:31;7.40;99.90
22526;DHT22;11429;50.842;4.386;2023-02-11T05:57:57;7.30;99.90
22526;DHT22;11429;50.842;4.386;2023-02-11T06:00:22;7.20;99.90
22526;DHT22;11429;50.842;4.386;2023-02-11T06:02:48;7.20;99.90
22526;DHT22;11429;50.842;4.386;2023-02-11T06:05:14;7.20;99.90
22526;DHT22;11429;50.842;4.386;2023-02-11T06:07:40;7.20;99.90
22526;DHT22;11429;50.842;4.386;2023-02-11T06:10:06;7.20;99.90
22526;DHT22;11429;50.842;4.386;2023-02-11T06:12:32;7.20;99.90
22526;DHT22;11429;50.842;4.386;2023-02-11T06:14:57;7.20;99.90
22526;DHT22;11429;50.842;4.386;2023-02-11T06:17:23;7.30;99.90
22526;DHT22;11429;50.842;4.386;2023-02-11T06:19:49;7.40;99.90
22526;DHT22;11429;50.842;4.386;2023-02-11T06:22:15;7.40;99.90
22526;DHT22;11429;50.842;4.386;2023-02-11T06:24:41;7.50;99.90
22526;DHT22;11429;50.842;4.386;2023-02-11T06:27:06;7.50;99.90
22526;DHT22;11429;50.842;4.386;2023-02-11T06:29:32;7.60;99.90
22526;DHT22;11429;50.842;4.386;2023-02-11T06:31:58;7.50;99.90
22526;DHT22;11429;50.842;4.386;2023-02-11T06:34:23;7.50;99.90
22526;DHT22;11429;50.842;4.386;2023-02-11T06:36:49;7.40;99.90
22526;DHT22;11429;50.842;4.386;2023-02-11T06:39:15;7.40;99.90
22526;DHT22;11429;50.842;4.386;2023-02-11T06:41:40;7.40;99.90
22526;DHT22;11429;50.842;4.386;2023-02-11T06:44:06;7.50;99.90
22526;DHT22;11429;50.842;4.386;2023-02-11T06:46:32;7.70;99.90
22526;DHT22;11429;50.842;4.386;2023-02-11T06:48:57;7.70;99.90
22526;DHT22;11429;50.842;4.386;2023-02-11T06:51:24;7.60;99.90
22526;DHT22;11429;50.842;4.386;2023-02-11T06:53:49;7.60;99.90
22526;DHT22;11429;50.842;4.386;2023-02-11T06:56:18;7.60;99.90
22526;DHT22;11429;50.842;4.386;2023-02-11T06:58:44;7.70;99.90
22526;DHT22;11429;50.842;4.386;2023-02-11T07:01:13;7.50;99.90
22526;DHT22;11429;50.842;4.386;2023-02-11T07:03:41;7.70;99.90
22526;DHT22;11429;50.842;4.386;2023-02-11T07:06:11;8.00;99.90
22526;DHT22;11429;50.842;4.386;2023-02-11T07:08:37;7.80;99.90
22526;DHT22;11429;50.842;4.386;2023-02-11T07:11:18;7.50;99.90
22526;DHT22;11429;50.842;4.386;2023-02-11T07:13:45;7.40;99.90
22526;DHT22;11429;50.842;4.386;2023-02-11T07:16:14;7.60;99.90
22526;DHT22;11429;50.842;4.386;2023-02-11T07:18:41;7.50;99.90
22526;DHT22;11429;50.842;4.386;2023-02-11T07:21:08;7.40;99.90
22526;DHT22;11429;50.842;4.386;2023-02-11T07:23:35;7.30;99.90
22526;DHT22;11429;50.842;4.386;2023-02-11T07:26:05;7.30;99.90
22526;DHT22;11429;50.842;4.386;2023-02-11T07:28:32;7.40;99.90
22526;DHT22;11429;50.842;4.386;2023-02-11T07:30:58;7.60;99.90
22526;DHT22;11429;50.842;4.386;2023-02-11T07:33:24;7.80;99.90
22526;DHT22;11429;50.842;4.386;2023-02-11T07:35:49;7.80;99.90
22526;DHT22;11429;50.842;4.386;2023-02-11T07:38:15;7.70;99.90
22526;DHT22;11429;50.842;4.386;2023-02-11T07:40:41;7.70;99.90
22526;DHT22;11429;50.842;4.386;2023-02-11T07:43:06;7.80;99.90
22526;DHT22;11429;50.842;4.386;2023-02-11T07:45:32;7.80;99.90
22526;DHT22;11429;50.842;4.386;2023-02-11T07:47:57;7.90;99.90
22526;DHT22;11429;50.842;4.386;2023-02-11T07:50:24;7.80;99.90
22526;DHT22;11429;50.842;4.386;2023-02-11T07:52:49;7.60;99.90
22526;DHT22;11429;50.842;4.386;2023-02-11T07:55:15;7.90;99.90
22526;DHT22;11429;50.842;4.386;2023-02-11T07:57:41;7.90;99.90
22526;DHT22;11429;50.842;4.386;2023-02-11T08:00:07;8.00;99.90
22526;DHT22;11429;50.842;4.386;2023-02-11T08:02:32;8.00;99.90
22526;DHT22;11429;50.842;4.386;2023-02-11T08:04:58;7.90;99.90
22526;DHT22;11429;50.842;4.386;2023-02-11T08:07:24;8.10;99.90
22526;DHT22;11429;50.842;4.386;2023-02-11T08:09:50;8.10;99.90
22526;DHT22;11429;50.842;4.386;2023-02-11T08:12:16;8.20;99.90
22526;DHT22;11429;50.842;4.386;2023-02-11T08:14:41;8.20;99.90
22526;DHT22;11429;50.842;4.386;2023-02-11T08:17:07;8.00;99.90
22526;DHT22;11429;50.842;4.386;2023-02-11T08:19:32;8.20;99.90
22526;DHT22;11429;50.842;4.386;2023-02-11T08:21:58;8.40;99.90
22526;DHT22;11429;50.842;4.386;2023-02-11T08:24:25;8.30;99.90
22526;DHT22;11429;50.842;4.386;2023-02-11T08:26:51;8.10;99.90
22526;DHT22;11429;50.842;4.386;2023-02-11T08:29:16;8.10;99.90
22526;DHT22;11429;50.842;4.386;2023-02-11T08:31:45;8.00;99.90
22526;DHT22;11429;50.842;4.386;2023-02-11T08:34:12;7.80;99.90
22526;DHT22;11429;50.842;4.386;2023-02-11T08:36:40;7.80;99.90
22526;DHT22;11429;50.842;4.386;2023-02-11T08:39:15;7.70;99.90
22526;DHT22;11429;50.842;4.386;2023-02-11T08:41:42;7.80;99.90
22526;DHT22;11429;50.842;4.386;2023-02-11T08:44:08;7.80;99.90
22526;DHT22;11429;50.842;4.386;2023-02-11T08:46:33;8.00;99.90
22526;DHT22;11429;50.842;4.386;2023-02-11T08:48:59;8.20;99.90
22526;DHT22;11429;50.842;4.386;2023-02-11T08:51:26;8.20;99.90
22526;DHT22;11429;50.842;4.386;2023-02-11T08:53:53;8.10;99.90
22526;DHT22;11429;50.842;4.386;2023-02-11T08:56:20;8.10;99.90
22526;DHT22;11429;50.842;4.386;2023-02-11T08:58:46;8.20;99.90
22526;DHT22;11429;50.842;4.386;2023-02-11T09:01:14;8.10;99.90
22526;DHT22;11429;50.842;4.386;2023-02-11T09:03:40;8.30;99.90
22526;DHT22;11429;50.842;4.386;2023-02-11T09:06:07;8.40;99.90
22526;DHT22;11429;50.842;4.386;2023-02-11T09:08:38;8.30;99.90
22526;DHT22;11429;50.842;4.386;2023-02-11T09:11:04;8.40;99.90
22526;DHT22;11429;50.842;4.386;2023-02-11T09:13:31;8.50;99.90
22526;DHT22;11429;50.842;4.386;2023-02-11T09:15:58;8.30;99.90
22526;DHT22;11429;50.842;4.386;2023-02-11T09:18:24;8.30;99.90
22526;DHT22;11429;50.842;4.386;2023-02-11T09:20:50;8.20;99.90
22526;DHT22;11429;50.842;4.386;2023-02-11T09:23:16;8.10;99.90
22526;DHT22;11429;50.842;4.386;2023-02-11T09:25:42;8.10;99.90
22526;DHT22;11429;50.842;4.386;2023-02-11T09:28:08;8.00;99.90
22526;DHT22;11429;50.842;4.386;2023-02-11T09:30:35;8.00;99.90
22526;DHT22;11429;50.842;4.386;2023-02-11T09:33:02;8.10;99.90
22526;DHT22;11429;50.842;4.386;2023-02-11T09:35:28;8.20;99.90
22526;DHT22;11429;50.842;4.386;2023-02-11T09:37:54;8.40;99.90
22526;DHT22;11429;50.842;4.386;2023-02-11T09:40:20;8.40;99.90
22526;DHT22;11429;50.842;4.386;2023-02-11T09:45:31;8.60;99.90
22526;DHT22;11429;50.842;4.386;2023-02-11T09:48:10;8.50;99.90
22526;DHT22;11429;50.842;4.386;2023-02-11T09:50:45;8.40;99.90
22526;DHT22;11429;50.842;4.386;2023-02-11T09:53:27;8.50;99.90
22526;DHT22;11429;50.842;4.386;2023-02-11T09:55:56;8.50;99.90
22526;DHT22;11429;50.842;4.386;2023-02-11T09:58:35;8.40;99.90
22526;DHT22;11429;50.842;4.386;2023-02-11T10:01:09;8.50;99.90
22526;DHT22;11429;50.842;4.386;2023-02-11T10:14:51;8.60;99.90
22526;DHT22;11429;50.842;4.386;2023-02-11T10:17:44;8.50;99.90
22526;DHT22;11429;50.842;4.386;2023-02-11T10:22:56;8.90;99.90
22526;DHT22;11429;50.842;4.386;2023-02-11T10:25:42;8.60;99.90
22526;DHT22;11429;50.842;4.386;2023-02-11T10:28:16;8.60;99.90
22526;DHT22;11429;50.842;4.386;2023-02-11T10:31:01;8.60;99.90
22526;DHT22;11429;50.842;4.386;2023-02-11T10:36:18;8.60;99.90
22526;DHT22;11429;50.842;4.386;2023-02-11T10:38:45;8.60;99.90
22526;DHT22;11429;50.842;4.386;2023-02-11T10:41:20;8.60;99.90
22526;DHT22;11429;50.842;4.386;2023-02-11T10:43:47;8.80;99.90
22526;DHT22;11429;50.842;4.386;2023-02-11T10:46:20;8.80;99.90
22526;DHT22;11429;50.842;4.386;2023-02-11T10:48:48;8.90;99.90
22526;DHT22;11429;50.842;4.386;2023-02-11T10:51:21;8.90;99.90
22526;DHT22;11429;50.842;4.386;2023-02-11T10:53:50;9.00;99.90
22526;DHT22;11429;50.842;4.386;2023-02-11T10:56:26;8.80;99.90
22526;DHT22;11429;50.842;4.386;2023-02-11T11:01:47;8.80;99.90
22526;DHT22;11429;50.842;4.386;2023-02-11T11:09:55;8.80;99.90
22526;DHT22;11429;50.842;4.386;2023-02-11T11:12:37;8.70;99.90
22526;DHT22;11429;50.842;4.386;2023-02-11T11:15:27;8.70;99.90
22526;DHT22;11429;50.842;4.386;2023-02-11T11:18:16;8.80;99.90
22526;DHT22;11429;50.842;4.386;2023-02-11T11:20:57;8.90;99.90
22526;DHT22;11429;50.842;4.386;2023-02-11T11:23:24;9.10;99.90
22526;DHT22;11429;50.842;4.386;2023-02-11T11:26:06;9.40;99.90
22526;DHT22;11429;50.842;4.386;2023-02-11T11:28:48;9.30;99.90
22526;DHT22;11429;50.842;4.386;2023-02-11T11:31:19;9.20;99.90
22526;DHT22;11429;50.842;4.386;2023-02-11T11:33:46;9.30;99.90
22526;DHT22;11429;50.842;4.386;2023-02-11T11:36:16;9.30;99.90
22526;DHT22;11429;50.842;4.386;2023-02-11T11:38:57;9.30;99.90
22526;DHT22;11429;50.842;4.386;2023-02-11T11:41:32;9.30;99.90
22526;DHT22;11429;50.842;4.386;2023-02-11T11:44:22;9.10;99.90
22526;DHT22;11429;50.842;4.386;2023-02-11T11:47:03;9.10;99.90
22526;DHT22;11429;50.842;4.386;2023-02-11T11:50:22;9.30;99.90
22526;DHT22;11429;50.842;4.386;2023-02-11T11:55:21;9.30;99.90
22526;DHT22;11429;50.842;4.386;2023-02-11T11:57:49;9.30;99.90
22526;DHT22;11429;50.842;4.386;2023-02-11T12:00:21;9.30;99.90
22526;DHT22;11429;50.842;4.386;2023-02-11T12:03:02;9.30;99.90
22526;DHT22;11429;50.842;4.386;2023-02-11T12:05:41;9.20;99.90
22526;DHT22;11429;50.842;4.386;2023-02-11T12:08:29;9.20;99.90
22526;DHT22;11429;50.842;4.386;2023-02-11T12:11:24;9.20;99.90
22526;DHT22;11429;50.842;4.386;2023-02-11T12:36:48;9.50;99.90
22526;DHT22;11429;50.842;4.386;2023-02-11T12:47:37;9.50;99.90
22526;DHT22;11429;50.842;4.386;2023-02-11T12:53:18;9.50;99.90
22526;DHT22;11429;50.842;4.386;2023-02-11T12:55:47;9.80;99.90
22526;DHT22;11429;50.842;4.386;2023-02-11T12:58:18;9.60;99.90
22526;DHT22;11429;50.842;4.386;2023-02-11T13:00:54;9.50;99.90
22526;DHT22;11429;50.842;4.386;2023-02-11T13:03:30;9.60;99.90
22526;DHT22;11429;50.842;4.386;2023-02-11T13:06:04;9.50;99.90
22526;DHT22;11429;50.842;4.386;2023-02-11T13:08:37;9.50;99.90
22526;DHT22;11429;50.842;4.386;2023-02-11T13:11:10;9.50;99.90
22526;DHT22;11429;50.842;4.386;2023-02-11T13:21:54;9.70;99.90
22526;DHT22;11429;50.842;4.386;2023-02-11T13:32:17;9.70;99.90
22526;DHT22;11429;50.842;4.386;2023-02-11T13:40:02;9.80;99.90
22526;DHT22;11429;50.842;4.386;2023-02-11T13:42:30;9.70;99.90
22526;DHT22;11429;50.842;4.386;2023-02-11T13:44:57;9.60;99.90
22526;DHT22;11429;50.842;4.386;2023-02-11T13:47:33;9.60;99.90
22526;DHT22;11429;50.842;4.386;2023-02-11T13:50:04;9.70;99.90
22526;DHT22;11429;50.842;4.386;2023-02-11T13:52:36;9.80;99.90
22526;DHT22;11429;50.842;4.386;2023-02-11T13:55:21;10.00;99.90
22526;DHT22;11429;50.842;4.386;2023-02-11T14:00:44;9.70;99.90
22526;DHT22;11429;50.842;4.386;2023-02-11T14:06:25;9.80;99.90
22526;DHT22;11429;50.842;4.386;2023-02-11T14:22:05;9.60;99.90
22526;DHT22;11429;50.842;4.386;2023-02-11T14:30:04;9.70;99.90
22526;DHT22;11429;50.842;4.386;2023-02-11T14:40:45;10.00;99.90
22526;DHT22;11429;50.842;4.386;2023-02-11T14:43:18;9.90;99.90
22526;DHT22;11429;50.842;4.386;2023-02-11T14:45:49;9.90;99.90
22526;DHT22;11429;50.842;4.386;2023-02-11T14:48:17;9.90;99.90
22526;DHT22;11429;50.842;4.386;2023-02-11T14:50:56;9.90;99.90
22526;DHT22;11429;50.842;4.386;2023-02-11T14:53:24;10.00;99.90
22526;DHT22;11429;50.842;4.386;2023-02-11T14:55:52;9.80;99.90
22526;DHT22;11429;50.842;4.386;2023-02-11T14:58:19;9.70;99.90
22526;DHT22;11429;50.842;4.386;2023-02-11T15:01:04;9.60;99.90
22526;DHT22;11429;50.842;4.386;2023-02-11T15:03:36;9.50;99.90
22526;DHT22;11429;50.842;4.386;2023-02-11T15:06:23;9.80;99.90
22526;DHT22;11429;50.842;4.386;2023-02-11T15:08:54;10.00;99.90
22526;DHT22;11429;50.842;4.386;2023-02-11T15:11:22;9.90;99.90
22526;DHT22;11429;50.842;4.386;2023-02-11T15:13:49;10.00;99.90
22526;DHT22;11429;50.842;4.386;2023-02-11T15:16:26;10.00;99.90
22526;DHT22;11429;50.842;4.386;2023-02-11T15:18:59;9.90;99.90
22526;DHT22;11429;50.842;4.386;2023-02-11T15:21:28;9.80;99.90
22526;DHT22;11429;50.842;4.386;2023-02-11T15:24:17;9.60;99.90
22526;DHT22;11429;50.842;4.386;2023-02-11T15:26:58;9.60;99.90
22526;DHT22;11429;50.842;4.386;2023-02-11T15:29:26;9.60;99.90
22526;DHT22;11429;50.842;4.386;2023-02-11T15:32:12;9.70;99.90
22526;DHT22;11429;50.842;4.386;2023-02-11T15:34:39;9.80;99.90
22526;DHT22;11429;50.842;4.386;2023-02-11T15:37:05;10.10;99.90
22526;DHT22;11429;50.842;4.386;2023-02-11T15:39:36;10.10;99.90
22526;DHT22;11429;50.842;4.386;2023-02-11T15:42:16;10.10;99.90
22526;DHT22;11429;50.842;4.386;2023-02-11T15:44:42;10.10;99.90
22526;DHT22;11429;50.842;4.386;2023-02-11T15:47:21;10.10;99.90
22526;DHT22;11429;50.842;4.386;2023-02-11T15:49:47;10.10;99.90
22526;DHT22;11429;50.842;4.386;2023-02-11T15:52:22;10.20;99.90
22526;DHT22;11429;50.842;4.386;2023-02-11T15:54:48;10.10;99.90
22526;DHT22;11429;50.842;4.386;2023-02-11T15:57:14;10.10;99.90
22526;DHT22;11429;50.842;4.386;2023-02-11T15:59:47;10.00;99.90
22526;DHT22;11429;50.842;4.386;2023-02-11T16:02:20;9.90;99.90
22526;DHT22;11429;50.842;4.386;2023-02-11T16:04:50;9.90;99.90
22526;DHT22;11429;50.842;4.386;2023-02-11T16:07:40;9.60;99.90
22526;DHT22;11429;50.842;4.386;2023-02-11T16:10:18;9.70;99.90
22526;DHT22;11429;50.842;4.386;2023-02-11T16:18:01;9.90;99.90
22526;DHT22;11429;50.842;4.386;2023-02-11T16:20:28;9.90;99.90
22526;DHT22;11429;50.842;4.386;2023-02-11T16:22:54;9.60;99.90
22526;DHT22;11429;50.842;4.386;2023-02-11T16:25:21;9.70;99.90
22526;DHT22;11429;50.842;4.386;2023-02-11T16:27:50;9.50;99.90
22526;DHT22;11429;50.842;4.386;2023-02-11T16:30:36;9.50;99.90
22526;DHT22;11429;50.842;4.386;2023-02-11T16:33:03;9.70;99.90
22526;DHT22;11429;50.842;4.386;2023-02-11T16:35:30;9.70;99.90
22526;DHT22;11429;50.842;4.386;2023-02-11T16:37:55;9.50;99.90
22526;DHT22;11429;50.842;4.386;2023-02-11T16:40:21;9.80;99.90
22526;DHT22;11429;50.842;4.386;2023-02-11T16:42:48;9.90;99.90
22526;DHT22;11429;50.842;4.386;2023-02-11T16:45:14;9.90;99.90
22526;DHT22;11429;50.842;4.386;2023-02-11T16:47:41;9.90;99.90
22526;DHT22;11429;50.842;4.386;2023-02-11T16:50:19;9.90;99.90
22526;DHT22;11429;50.842;4.386;2023-02-11T16:52:46;9.70;99.90
22526;DHT22;11429;50.842;4.386;2023-02-11T16:55:12;9.50;99.90
22526;DHT22;11429;50.842;4.386;2023-02-11T16:57:37;9.50;99.90
22526;DHT22;11429;50.842;4.386;2023-02-11T17:00:05;9.60;99.90
22526;DHT22;11429;50.842;4.386;2023-02-11T17:02:36;9.40;99.90
22526;DHT22;11429;50.842;4.386;2023-02-11T17:05:07;9.50;99.90
22526;DHT22;11429;50.842;4.386;2023-02-11T17:07:39;9.50;99.90
22526;DHT22;11429;50.842;4.386;2023-02-11T17:10:16;9.60;99.90
22526;DHT22;11429;50.842;4.386;2023-02-11T17:12:42;9.60;99.90
22526;DHT22;11429;50.842;4.386;2023-02-11T17:15:08;9.40;99.90
22526;DHT22;11429;50.842;4.386;2023-02-11T17:17:34;9.50;99.90
22526;DHT22;11429;50.842;4.386;2023-02-11T17:20:00;9.40;99.90
22526;DHT22;11429;50.842;4.386;2023-02-11T17:22:25;9.40;99.90
22526;DHT22;11429;50.842;4.386;2023-02-11T17:24:51;9.40;99.90
22526;DHT22;11429;50.842;4.386;2023-02-11T17:27:20;9.50;99.90
22526;DHT22;11429;50.842;4.386;2023-02-11T17:29:46;9.50;99.90
22526;DHT22;11429;50.842;4.386;2023-02-11T17:32:11;9.50;99.90
22526;DHT22;11429;50.842;4.386;2023-02-11T17:34:39;9.40;99.90
22526;DHT22;11429;50.842;4.386;2023-02-11T17:37:05;9.50;99.90
22526;DHT22;11429;50.842;4.386;2023-02-11T17:39:35;9.50;99.90
22526;DHT22;11429;50.842;4.386;2023-02-11T17:42:01;9.50;99.90
22526;DHT22;11429;50.842;4.386;2023-02-11T17:44:27;9.50;99.90
22526;DHT22;11429;50.842;4.386;2023-02-11T17:46:52;9.40;99.90
22526;DHT22;11429;50.842;4.386;2023-02-11T17:49:18;9.40;99.90
22526;DHT22;11429;50.842;4.386;2023-02-11T17:51:45;9.40;99.90
22526;DHT22;11429;50.842;4.386;2023-02-11T17:54:13;9.50;99.90
22526;DHT22;11429;50.842;4.386;2023-02-11T17:56:41;9.60;99.90
22526;DHT22;11429;50.842;4.386;2023-02-11T17:59:08;9.70;99.90
22526;DHT22;11429;50.842;4.386;2023-02-11T18:01:35;9.70;99.90
22526;DHT22;11429;50.842;4.386;2023-02-11T18:04:02;9.70;99.90
22526;DHT22;11429;50.842;4.386;2023-02-11T18:06:27;9.80;99.90
22526;DHT22;11429;50.842;4.386;2023-02-11T18:08:54;9.80;99.90
22526;DHT22;11429;50.842;4.386;2023-02-11T18:11:24;9.80;99.90
22526;DHT22;11429;50.842;4.386;2023-02-11T18:13:50;9.70;99.90
22526;DHT22;11429;50.842;4.386;2023-02-11T18:16:19;9.70;99.90
22526;DHT22;11429;50.842;4.386;2023-02-11T18:18:45;9.70;99.90
22526;DHT22;11429;50.842;4.386;2023-02-11T18:21:13;9.70;99.90
22526;DHT22;11429;50.842;4.386;2023-02-11T18:23:39;9.60;99.90
22526;DHT22;11429;50.842;4.386;2023-02-11T18:26:10;9.70;99.90
22526;DHT22;11429;50.842;4.386;2023-02-11T18:28:37;9.90;99.90
22526;DHT22;11429;50.842;4.386;2023-02-11T18:31:03;10.00;99.90